Terminal Aerodrome Forecast
Issued by NWS

Home | Current Version | Previous Version | Text Only | Print | Product List | Glossary On
Versions: 1 2 3 4 5 6 7 8 9 10 11 12 13 14 15 16 17 18 19 20 21
000
FTUS41 KOKX 280500 RRA
TAFHPN
TAF
KHPN 280546Z 2806/2906 VRB03KT 6SM -SHRA VCTS SCT050CB BKN100
      TEMPO 2806/2807 -TSRA BKN045CB
     FM280800 VRB03KT 6SM BR BKN045
     FM281300 20007KT 6SM HZ BKN045
     FM281700 23010G18KT P6SM SCT050
     FM282200 28011G19KT P6SM SCT050
     FM290200 30008KT P6SM FEW050
      AMD NOT SKED=

USA.gov is the U.S. government's official web portal to all federal, state and local government web resources and services.